sensor_id;sensor_type;location;lat;lon;timestamp;temperature;humidity
51765;DHT22;37835;53.256;6.456;2023-03-19T00:01:43;10.20;99.90
51765;DHT22;37835;53.256;6.456;2023-03-19T00:04:08;10.20;99.90
51765;DHT22;37835;53.256;6.456;2023-03-19T00:06:34;10.20;99.90
51765;DHT22;37835;53.256;6.456;2023-03-19T00:09:00;10.20;99.90
51765;DHT22;37835;53.256;6.456;2023-03-19T00:11:25;10.20;99.90
51765;DHT22;37835;53.256;6.456;2023-03-19T00:13:51;10.20;99.90
51765;DHT22;37835;53.256;6.456;2023-03-19T00:16:17;10.20;99.90
51765;DHT22;37835;53.256;6.456;2023-03-19T00:18:42;10.20;99.90
51765;DHT22;37835;53.256;6.456;2023-03-19T00:21:08;10.10;99.90
51765;DHT22;37835;53.256;6.456;2023-03-19T00:23:34;10.10;99.90
51765;DHT22;37835;53.256;6.456;2023-03-19T00:26:01;10.10;99.90
51765;DHT22;37835;53.256;6.456;2023-03-19T00:28:26;10.10;99.90
51765;DHT22;37835;53.256;6.456;2023-03-19T00:30:52;10.10;99.90
51765;DHT22;37835;53.256;6.456;2023-03-19T00:33:18;10.00;99.90
51765;DHT22;37835;53.256;6.456;2023-03-19T00:35:44;10.00;99.90
51765;DHT22;37835;53.256;6.456;2023-03-19T00:38:10;10.00;99.90
51765;DHT22;37835;53.256;6.456;2023-03-19T00:40:36;10.00;99.90
51765;DHT22;37835;53.256;6.456;2023-03-19T00:43:02;10.00;99.90
51765;DHT22;37835;53.256;6.456;2023-03-19T00:45:27;9.90;99.90
51765;DHT22;37835;53.256;6.456;2023-03-19T00:47:55;9.90;99.90
51765;DHT22;37835;53.256;6.456;2023-03-19T00:50:21;9.90;99.90
51765;DHT22;37835;53.256;6.456;2023-03-19T00:52:47;9.90;99.90
51765;DHT22;37835;53.256;6.456;2023-03-19T00:55:13;9.90;99.90
51765;DHT22;37835;53.256;6.456;2023-03-19T00:57:38;9.90;99.90
51765;DHT22;37835;53.256;6.456;2023-03-19T01:00:04;9.90;99.90
51765;DHT22;37835;53.256;6.456;2023-03-19T01:02:31;9.90;99.90
51765;DHT22;37835;53.256;6.456;2023-03-19T01:04:56;9.90;99.90
51765;DHT22;37835;53.256;6.456;2023-03-19T01:07:22;9.90;99.90
51765;DHT22;37835;53.256;6.456;2023-03-19T01:09:48;9.90;99.90
51765;DHT22;37835;53.256;6.456;2023-03-19T01:12:13;9.90;99.90
51765;DHT22;37835;53.256;6.456;2023-03-19T01:14:39;9.90;99.90
51765;DHT22;37835;53.256;6.456;2023-03-19T01:17:05;9.90;99.90
51765;DHT22;37835;53.256;6.456;2023-03-19T01:19:31;9.90;99.90
51765;DHT22;37835;53.256;6.456;2023-03-19T01:21:56;9.90;99.90
51765;DHT22;37835;53.256;6.456;2023-03-19T01:24:22;9.90;99.90
51765;DHT22;37835;53.256;6.456;2023-03-19T01:26:48;10.00;99.90
51765;DHT22;37835;53.256;6.456;2023-03-19T01:29:13;10.00;99.90
51765;DHT22;37835;53.256;6.456;2023-03-19T01:31:39;10.00;99.90
51765;DHT22;37835;53.256;6.456;2023-03-19T01:34:04;10.00;99.90
51765;DHT22;37835;53.256;6.456;2023-03-19T01:36:31;10.00;99.90
51765;DHT22;37835;53.256;6.456;2023-03-19T01:38:56;10.10;99.90
51765;DHT22;37835;53.256;6.456;2023-03-19T01:41:22;10.00;99.90
51765;DHT22;37835;53.256;6.456;2023-03-19T01:43:48;10.10;99.90
51765;DHT22;37835;53.256;6.456;2023-03-19T01:46:26;10.10;99.90
51765;DHT22;37835;53.256;6.456;2023-03-19T01:49:05;10.10;99.90
51765;DHT22;37835;53.256;6.456;2023-03-19T01:51:38;10.10;99.90
51765;DHT22;37835;53.256;6.456;2023-03-19T01:54:09;10.00;99.90
51765;DHT22;37835;53.256;6.456;2023-03-19T01:56:37;10.10;99.90
51765;DHT22;37835;53.256;6.456;2023-03-19T01:59:11;10.00;99.90
51765;DHT22;37835;53.256;6.456;2023-03-19T02:01:55;10.10;99.90
51765;DHT22;37835;53.256;6.456;2023-03-19T02:04:23;10.10;99.90
51765;DHT22;37835;53.256;6.456;2023-03-19T02:06:49;10.10;99.90
51765;DHT22;37835;53.256;6.456;2023-03-19T02:09:17;10.10;99.90
51765;DHT22;37835;53.256;6.456;2023-03-19T02:11:44;10.10;99.90
51765;DHT22;37835;53.256;6.456;2023-03-19T02:14:10;10.10;99.90
51765;DHT22;37835;53.256;6.456;2023-03-19T02:16:36;10.10;99.90
51765;DHT22;37835;53.256;6.456;2023-03-19T02:19:03;10.10;99.90
51765;DHT22;37835;53.256;6.456;2023-03-19T02:21:29;10.10;99.90
51765;DHT22;37835;53.256;6.456;2023-03-19T02:24:05;10.10;99.90
51765;DHT22;37835;53.256;6.456;2023-03-19T02:26:34;10.10;99.90
51765;DHT22;37835;53.256;6.456;2023-03-19T02:29:00;10.10;99.90
51765;DHT22;37835;53.256;6.456;2023-03-19T02:31:26;10.10;99.90
51765;DHT22;37835;53.256;6.456;2023-03-19T02:34:04;10.10;99.90
51765;DHT22;37835;53.256;6.456;2023-03-19T02:36:42;10.10;99.90
51765;DHT22;37835;53.256;6.456;2023-03-19T02:39:17;10.10;99.90
51765;DHT22;37835;53.256;6.456;2023-03-19T02:41:44;10.00;99.90
51765;DHT22;37835;53.256;6.456;2023-03-19T02:44:11;10.00;99.90
51765;DHT22;37835;53.256;6.456;2023-03-19T02:46:37;10.10;99.90
51765;DHT22;37835;53.256;6.456;2023-03-19T02:49:02;10.10;99.90
51765;DHT22;37835;53.256;6.456;2023-03-19T02:51:29;10.00;99.90
51765;DHT22;37835;53.256;6.456;2023-03-19T02:53:55;10.00;99.90
51765;DHT22;37835;53.256;6.456;2023-03-19T02:56:21;10.00;99.90
51765;DHT22;37835;53.256;6.456;2023-03-19T02:58:46;10.00;99.90
51765;DHT22;37835;53.256;6.456;2023-03-19T03:01:12;10.00;99.90
51765;DHT22;37835;53.256;6.456;2023-03-19T03:03:38;10.00;99.90
51765;DHT22;37835;53.256;6.456;2023-03-19T03:06:04;10.00;99.90
51765;DHT22;37835;53.256;6.456;2023-03-19T03:08:29;10.00;99.90
51765;DHT22;37835;53.256;6.456;2023-03-19T03:10:55;10.00;99.90
51765;DHT22;37835;53.256;6.456;2023-03-19T03:13:21;10.00;99.90
51765;DHT22;37835;53.256;6.456;2023-03-19T03:15:46;10.00;99.90
51765;DHT22;37835;53.256;6.456;2023-03-19T03:18:12;10.00;99.90
51765;DHT22;37835;53.256;6.456;2023-03-19T03:20:37;10.00;99.90
51765;DHT22;37835;53.256;6.456;2023-03-19T03:23:03;10.00;99.90
51765;DHT22;37835;53.256;6.456;2023-03-19T03:25:28;10.00;99.90
51765;DHT22;37835;53.256;6.456;2023-03-19T03:27:55;10.00;99.90
51765;DHT22;37835;53.256;6.456;2023-03-19T03:30:20;10.00;99.90
51765;DHT22;37835;53.256;6.456;2023-03-19T03:32:46;10.00;99.90
51765;DHT22;37835;53.256;6.456;2023-03-19T03:35:12;9.90;99.90
51765;DHT22;37835;53.256;6.456;2023-03-19T03:37:38;9.90;99.90
51765;DHT22;37835;53.256;6.456;2023-03-19T03:40:05;9.90;99.90
51765;DHT22;37835;53.256;6.456;2023-03-19T03:42:33;9.90;99.90
51765;DHT22;37835;53.256;6.456;2023-03-19T03:45:01;9.90;99.90
51765;DHT22;37835;53.256;6.456;2023-03-19T03:47:26;9.90;99.90
51765;DHT22;37835;53.256;6.456;2023-03-19T03:49:52;9.90;99.90
51765;DHT22;37835;53.256;6.456;2023-03-19T03:52:17;9.90;99.90
51765;DHT22;37835;53.256;6.456;2023-03-19T03:54:43;9.90;99.90
51765;DHT22;37835;53.256;6.456;2023-03-19T03:57:09;9.90;99.90
51765;DHT22;37835;53.256;6.456;2023-03-19T03:59:34;9.90;99.90
51765;DHT22;37835;53.256;6.456;2023-03-19T04:02:00;9.90;99.90
51765;DHT22;37835;53.256;6.456;2023-03-19T04:04:26;9.90;99.90
51765;DHT22;37835;53.256;6.456;2023-03-19T04:06:51;9.90;99.90
51765;DHT22;37835;53.256;6.456;2023-03-19T04:09:17;9.90;99.90
51765;DHT22;37835;53.256;6.456;2023-03-19T04:11:43;10.00;99.90
51765;DHT22;37835;53.256;6.456;2023-03-19T04:14:08;10.00;99.90
51765;DHT22;37835;53.256;6.456;2023-03-19T04:16:34;10.00;99.90
51765;DHT22;37835;53.256;6.456;2023-03-19T04:19:00;10.00;99.90
51765;DHT22;37835;53.256;6.456;2023-03-19T04:21:25;10.00;99.90
51765;DHT22;37835;53.256;6.456;2023-03-19T04:23:51;10.00;99.90
51765;DHT22;37835;53.256;6.456;2023-03-19T04:26:17;10.00;99.90
51765;DHT22;37835;53.256;6.456;2023-03-19T04:28:43;10.00;99.90
51765;DHT22;37835;53.256;6.456;2023-03-19T04:31:08;10.00;99.90
51765;DHT22;37835;53.256;6.456;2023-03-19T04:33:35;9.90;99.90
51765;DHT22;37835;53.256;6.456;2023-03-19T04:36:02;10.00;99.90
51765;DHT22;37835;53.256;6.456;2023-03-19T04:38:27;9.90;99.90
51765;DHT22;37835;53.256;6.456;2023-03-19T04:40:56;9.90;99.90
51765;DHT22;37835;53.256;6.456;2023-03-19T04:43:22;9.90;99.90
51765;DHT22;37835;53.256;6.456;2023-03-19T04:45:49;10.00;99.90
51765;DHT22;37835;53.256;6.456;2023-03-19T04:48:15;9.90;99.90
51765;DHT22;37835;53.256;6.456;2023-03-19T04:50:43;10.00;99.90
51765;DHT22;37835;53.256;6.456;2023-03-19T04:53:10;9.90;99.90
51765;DHT22;37835;53.256;6.456;2023-03-19T04:55:35;9.90;99.90
51765;DHT22;37835;53.256;6.456;2023-03-19T04:58:01;9.90;99.90
51765;DHT22;37835;53.256;6.456;2023-03-19T05:00:27;9.90;99.90
51765;DHT22;37835;53.256;6.456;2023-03-19T05:02:55;9.90;99.90
51765;DHT22;37835;53.256;6.456;2023-03-19T05:05:21;9.90;99.90
51765;DHT22;37835;53.256;6.456;2023-03-19T05:07:46;9.90;99.90
51765;DHT22;37835;53.256;6.456;2023-03-19T05:10:12;9.90;99.90
51765;DHT22;37835;53.256;6.456;2023-03-19T05:12:37;9.80;99.90
51765;DHT22;37835;53.256;6.456;2023-03-19T05:15:03;9.80;99.90
51765;DHT22;37835;53.256;6.456;2023-03-19T05:17:30;9.80;99.90
51765;DHT22;37835;53.256;6.456;2023-03-19T05:19:56;9.80;99.90
51765;DHT22;37835;53.256;6.456;2023-03-19T05:22:22;9.90;99.90
51765;DHT22;37835;53.256;6.456;2023-03-19T05:24:48;9.80;99.90
51765;DHT22;37835;53.256;6.456;2023-03-19T05:27:14;9.80;99.90
51765;DHT22;37835;53.256;6.456;2023-03-19T05:29:40;9.80;99.90
51765;DHT22;37835;53.256;6.456;2023-03-19T05:32:07;9.80;99.90
51765;DHT22;37835;53.256;6.456;2023-03-19T05:34:33;9.70;99.90
51765;DHT22;37835;53.256;6.456;2023-03-19T05:36:58;9.70;99.90
51765;DHT22;37835;53.256;6.456;2023-03-19T05:39:24;9.70;99.90
51765;DHT22;37835;53.256;6.456;2023-03-19T05:41:50;9.70;99.90
51765;DHT22;37835;53.256;6.456;2023-03-19T05:44:15;9.60;99.90
51765;DHT22;37835;53.256;6.456;2023-03-19T05:46:41;9.60;99.90
51765;DHT22;37835;53.256;6.456;2023-03-19T05:49:08;9.50;99.90
51765;DHT22;37835;53.256;6.456;2023-03-19T05:51:34;9.50;99.90
51765;DHT22;37835;53.256;6.456;2023-03-19T05:54:00;9.40;99.90
51765;DHT22;37835;53.256;6.456;2023-03-19T05:56:26;9.40;99.90
51765;DHT22;37835;53.256;6.456;2023-03-19T05:58:52;9.30;99.90
51765;DHT22;37835;53.256;6.456;2023-03-19T06:01:17;9.30;99.90
51765;DHT22;37835;53.256;6.456;2023-03-19T06:03:43;9.30;99.90
51765;DHT22;37835;53.256;6.456;2023-03-19T06:06:08;9.20;99.90
51765;DHT22;37835;53.256;6.456;2023-03-19T06:08:34;9.20;99.90
51765;DHT22;37835;53.256;6.456;2023-03-19T06:11:00;9.20;99.90
51765;DHT22;37835;53.256;6.456;2023-03-19T06:13:25;9.10;99.90
51765;DHT22;37835;53.256;6.456;2023-03-19T06:15:51;9.10;99.90
51765;DHT22;37835;53.256;6.456;2023-03-19T06:18:17;9.10;99.90
51765;DHT22;37835;53.256;6.456;2023-03-19T06:20:43;9.00;99.90
51765;DHT22;37835;53.256;6.456;2023-03-19T06:23:08;9.00;99.90
51765;DHT22;37835;53.256;6.456;2023-03-19T06:25:34;9.00;99.90
51765;DHT22;37835;53.256;6.456;2023-03-19T06:28:00;9.00;99.90
51765;DHT22;37835;53.256;6.456;2023-03-19T06:30:25;9.00;99.90
51765;DHT22;37835;53.256;6.456;2023-03-19T06:32:51;8.90;99.90
51765;DHT22;37835;53.256;6.456;2023-03-19T06:35:17;8.90;99.90
51765;DHT22;37835;53.256;6.456;2023-03-19T06:37:42;8.90;99.90
51765;DHT22;37835;53.256;6.456;2023-03-19T06:40:09;8.90;99.90
51765;DHT22;37835;53.256;6.456;2023-03-19T06:42:35;8.90;99.90
51765;DHT22;37835;53.256;6.456;2023-03-19T06:45:00;8.80;99.90
51765;DHT22;37835;53.256;6.456;2023-03-19T06:47:27;8.90;99.90
51765;DHT22;37835;53.256;6.456;2023-03-19T06:49:52;8.90;99.90
51765;DHT22;37835;53.256;6.456;2023-03-19T06:52:18;8.90;99.90
51765;DHT22;37835;53.256;6.456;2023-03-19T06:54:43;8.90;99.90
51765;DHT22;37835;53.256;6.456;2023-03-19T06:57:09;8.90;99.90
51765;DHT22;37835;53.256;6.456;2023-03-19T06:59:34;8.90;99.90
51765;DHT22;37835;53.256;6.456;2023-03-19T07:02:00;8.20;99.90
51765;DHT22;37835;53.256;6.456;2023-03-19T07:04:26;9.00;99.90
51765;DHT22;37835;53.256;6.456;2023-03-19T07:06:52;9.00;99.90
51765;DHT22;37835;53.256;6.456;2023-03-19T07:09:17;9.10;99.90
51765;DHT22;37835;53.256;6.456;2023-03-19T07:11:43;9.00;99.90
51765;DHT22;37835;53.256;6.456;2023-03-19T07:14:08;9.10;99.90
51765;DHT22;37835;53.256;6.456;2023-03-19T07:16:34;9.10;99.90
51765;DHT22;37835;53.256;6.456;2023-03-19T07:19:00;9.10;99.90
51765;DHT22;37835;53.256;6.456;2023-03-19T07:21:25;9.20;99.90
51765;DHT22;37835;53.256;6.456;2023-03-19T07:23:51;9.20;99.90
51765;DHT22;37835;53.256;6.456;2023-03-19T07:26:17;9.20;99.90
51765;DHT22;37835;53.256;6.456;2023-03-19T07:28:42;9.30;99.90
51765;DHT22;37835;53.256;6.456;2023-03-19T07:31:08;9.30;99.90
51765;DHT22;37835;53.256;6.456;2023-03-19T07:33:34;9.30;99.90
51765;DHT22;37835;53.256;6.456;2023-03-19T07:35:59;9.40;99.90
51765;DHT22;37835;53.256;6.456;2023-03-19T07:38:26;9.40;99.90
51765;DHT22;37835;53.256;6.456;2023-03-19T07:40:51;9.40;99.90
51765;DHT22;37835;53.256;6.456;2023-03-19T07:43:17;9.50;99.90
51765;DHT22;37835;53.256;6.456;2023-03-19T07:45:42;9.50;99.90
51765;DHT22;37835;53.256;6.456;2023-03-19T07:48:08;9.60;99.90
51765;DHT22;37835;53.256;6.456;2023-03-19T07:50:34;9.70;99.90
51765;DHT22;37835;53.256;6.456;2023-03-19T07:52:59;9.70;99.90
51765;DHT22;37835;53.256;6.456;2023-03-19T07:55:25;9.70;99.90
51765;DHT22;37835;53.256;6.456;2023-03-19T07:57:51;9.80;99.90
51765;DHT22;37835;53.256;6.456;2023-03-19T08:00:17;9.90;99.90
51765;DHT22;37835;53.256;6.456;2023-03-19T08:02:43;9.90;99.90
51765;DHT22;37835;53.256;6.456;2023-03-19T08:05:10;9.90;99.90
51765;DHT22;37835;53.256;6.456;2023-03-19T08:07:36;10.00;99.90
51765;DHT22;37835;53.256;6.456;2023-03-19T08:10:03;10.00;99.90
51765;DHT22;37835;53.256;6.456;2023-03-19T08:12:28;10.00;99.90
51765;DHT22;37835;53.256;6.456;2023-03-19T08:14:54;10.10;99.90
51765;DHT22;37835;53.256;6.456;2023-03-19T08:17:20;10.20;99.90
51765;DHT22;37835;53.256;6.456;2023-03-19T08:19:45;10.20;99.90
51765;DHT22;37835;53.256;6.456;2023-03-19T08:22:11;10.20;99.90
51765;DHT22;37835;53.256;6.456;2023-03-19T08:24:37;10.20;99.90
51765;DHT22;37835;53.256;6.456;2023-03-19T08:27:02;10.30;99.90
51765;DHT22;37835;53.256;6.456;2023-03-19T08:29:28;10.30;99.90
51765;DHT22;37835;53.256;6.456;2023-03-19T08:31:54;10.40;99.90
51765;DHT22;37835;53.256;6.456;2023-03-19T08:34:21;10.40;99.90
51765;DHT22;37835;53.256;6.456;2023-03-19T08:36:47;10.40;99.90
51765;DHT22;37835;53.256;6.456;2023-03-19T08:39:13;10.50;99.90
51765;DHT22;37835;53.256;6.456;2023-03-19T08:41:38;10.50;99.90
51765;DHT22;37835;53.256;6.456;2023-03-19T08:44:04;10.50;99.90
51765;DHT22;37835;53.256;6.456;2023-03-19T08:46:30;10.50;99.90
51765;DHT22;37835;53.256;6.456;2023-03-19T08:48:55;10.50;99.90
51765;DHT22;37835;53.256;6.456;2023-03-19T08:51:21;10.50;99.90
51765;DHT22;37835;53.256;6.456;2023-03-19T08:53:50;10.50;99.90
51765;DHT22;37835;53.256;6.456;2023-03-19T08:56:15;10.50;99.90
51765;DHT22;37835;53.256;6.456;2023-03-19T08:58:41;10.50;99.90
51765;DHT22;37835;53.256;6.456;2023-03-19T09:01:09;10.60;99.90
51765;DHT22;37835;53.256;6.456;2023-03-19T09:03:36;10.60;99.90
51765;DHT22;37835;53.256;6.456;2023-03-19T09:06:04;10.70;99.90
51765;DHT22;37835;53.256;6.456;2023-03-19T09:08:31;10.70;99.90
51765;DHT22;37835;53.256;6.456;2023-03-19T09:10:57;10.80;99.90
51765;DHT22;37835;53.256;6.456;2023-03-19T09:13:24;10.80;99.90
51765;DHT22;37835;53.256;6.456;2023-03-19T09:15:50;10.80;99.90
51765;DHT22;37835;53.256;6.456;2023-03-19T09:18:16;10.80;99.90
51765;DHT22;37835;53.256;6.456;2023-03-19T09:20:42;10.90;99.90
51765;DHT22;37835;53.256;6.456;2023-03-19T09:23:08;10.90;99.90
51765;DHT22;37835;53.256;6.456;2023-03-19T09:25:34;10.90;99.90
51765;DHT22;37835;53.256;6.456;2023-03-19T09:27:59;10.90;99.90
51765;DHT22;37835;53.256;6.456;2023-03-19T09:30:26;10.90;99.90
51765;DHT22;37835;53.256;6.456;2023-03-19T09:32:51;11.00;99.90
51765;DHT22;37835;53.256;6.456;2023-03-19T09:35:17;10.90;99.90
51765;DHT22;37835;53.256;6.456;2023-03-19T09:37:43;11.00;99.90
51765;DHT22;37835;53.256;6.456;2023-03-19T09:40:20;11.00;99.90
51765;DHT22;37835;53.256;6.456;2023-03-19T09:43:10;11.00;99.90
51765;DHT22;37835;53.256;6.456;2023-03-19T09:45:41;11.00;99.90
51765;DHT22;37835;53.256;6.456;2023-03-19T09:48:13;11.00;99.90
51765;DHT22;37835;53.256;6.456;2023-03-19T09:50:41;10.90;99.90
51765;DHT22;37835;53.256;6.456;2023-03-19T09:56:14;11.00;99.90
51765;DHT22;37835;53.256;6.456;2023-03-19T09:58:41;11.10;99.90
51765;DHT22;37835;53.256;6.456;2023-03-19T10:01:20;11.10;99.90
51765;DHT22;37835;53.256;6.456;2023-03-19T10:06:35;11.20;99.90
51765;DHT22;37835;53.256;6.456;2023-03-19T10:09:38;11.10;99.90
51765;DHT22;37835;53.256;6.456;2023-03-19T10:12:28;11.20;99.90
51765;DHT22;37835;53.256;6.456;2023-03-19T10:15:30;11.10;99.90
51765;DHT22;37835;53.256;6.456;2023-03-19T10:20:45;11.20;99.90
51765;DHT22;37835;53.256;6.456;2023-03-19T10:25:42;11.20;99.90
51765;DHT22;37835;53.256;6.456;2023-03-19T10:28:15;11.30;99.90
51765;DHT22;37835;53.256;6.456;2023-03-19T10:30:42;11.30;99.90
51765;DHT22;37835;53.256;6.456;2023-03-19T10:33:23;11.30;99.90
51765;DHT22;37835;53.256;6.456;2023-03-19T10:35:57;11.40;99.90
51765;DHT22;37835;53.256;6.456;2023-03-19T10:38:24;12.10;99.90
51765;DHT22;37835;53.256;6.456;2023-03-19T10:41:03;11.40;99.90
51765;DHT22;37835;53.256;6.456;2023-03-19T10:43:30;11.40;99.90
51765;DHT22;37835;53.256;6.456;2023-03-19T10:45:56;11.30;99.90
51765;DHT22;37835;53.256;6.456;2023-03-19T10:48:24;11.30;99.90
51765;DHT22;37835;53.256;6.456;2023-03-19T10:50:57;11.30;99.90
51765;DHT22;37835;53.256;6.456;2023-03-19T10:53:33;11.30;99.90
51765;DHT22;37835;53.256;6.456;2023-03-19T10:58:30;11.30;99.90
51765;DHT22;37835;53.256;6.456;2023-03-19T11:01:08;11.30;99.90
51765;DHT22;37835;53.256;6.456;2023-03-19T11:03:54;11.20;99.90
51765;DHT22;37835;53.256;6.456;2023-03-19T11:06:36;11.20;99.90
51765;DHT22;37835;53.256;6.456;2023-03-19T11:09:34;11.20;99.90
51765;DHT22;37835;53.256;6.456;2023-03-19T11:12:07;11.10;99.90
51765;DHT22;37835;53.256;6.456;2023-03-19T11:14:38;11.00;99.90
51765;DHT22;37835;53.256;6.456;2023-03-19T11:19:48;11.00;99.90
51765;DHT22;37835;53.256;6.456;2023-03-19T11:22:21;11.00;99.90
51765;DHT22;37835;53.256;6.456;2023-03-19T11:24:51;10.90;99.90
51765;DHT22;37835;53.256;6.456;2023-03-19T11:27:18;10.90;99.90
51765;DHT22;37835;53.256;6.456;2023-03-19T11:29:50;10.90;99.90
51765;DHT22;37835;53.256;6.456;2023-03-19T11:35:14;10.80;99.90
51765;DHT22;37835;53.256;6.456;2023-03-19T11:37:49;10.80;99.90
51765;DHT22;37835;53.256;6.456;2023-03-19T11:40:52;10.70;99.90
51765;DHT22;37835;53.256;6.456;2023-03-19T11:43:55;10.70;99.90
51765;DHT22;37835;53.256;6.456;2023-03-19T11:46:33;10.70;99.90
51765;DHT22;37835;53.256;6.456;2023-03-19T11:51:45;10.70;99.90
51765;DHT22;37835;53.256;6.456;2023-03-19T11:59:42;10.60;99.90
51765;DHT22;37835;53.256;6.456;2023-03-19T12:02:26;10.60;99.90
51765;DHT22;37835;53.256;6.456;2023-03-19T12:05:06;10.60;99.90
51765;DHT22;37835;53.256;6.456;2023-03-19T12:15:38;10.50;99.90
51765;DHT22;37835;53.256;6.456;2023-03-19T12:20:55;10.50;99.90
51765;DHT22;37835;53.256;6.456;2023-03-19T12:32:24;10.40;99.90
51765;DHT22;37835;53.256;6.456;2023-03-19T12:34:57;10.40;99.90
51765;DHT22;37835;53.256;6.456;2023-03-19T12:42:53;10.30;99.90
51765;DHT22;37835;53.256;6.456;2023-03-19T12:45:37;10.40;99.90
51765;DHT22;37835;53.256;6.456;2023-03-19T12:48:14;10.40;99.90
51765;DHT22;37835;53.256;6.456;2023-03-19T12:50:46;10.40;99.90
51765;DHT22;37835;53.256;6.456;2023-03-19T12:53:48;10.50;99.90
51765;DHT22;37835;53.256;6.456;2023-03-19T12:58:57;10.50;99.90
51765;DHT22;37835;53.256;6.456;2023-03-19T13:01:48;10.50;99.90
51765;DHT22;37835;53.256;6.456;2023-03-19T13:04:19;10.50;99.90
51765;DHT22;37835;53.256;6.456;2023-03-19T13:07:00;10.50;99.90
51765;DHT22;37835;53.256;6.456;2023-03-19T13:09:36;10.50;99.90
51765;DHT22;37835;53.256;6.456;2023-03-19T13:12:08;10.50;99.90
51765;DHT22;37835;53.256;6.456;2023-03-19T13:17:35;10.50;99.90
51765;DHT22;37835;53.256;6.456;2023-03-19T13:23:01;10.50;99.90
51765;DHT22;37835;53.256;6.456;2023-03-19T13:25:38;10.40;99.90
51765;DHT22;37835;53.256;6.456;2023-03-19T13:28:09;10.40;99.90
51765;DHT22;37835;53.256;6.456;2023-03-19T13:30:35;10.30;99.90
51765;DHT22;37835;53.256;6.456;2023-03-19T13:33:15;10.30;99.90
51765;DHT22;37835;53.256;6.456;2023-03-19T13:35:48;10.30;99.90
51765;DHT22;37835;53.256;6.456;2023-03-19T13:38:27;10.30;99.90
51765;DHT22;37835;53.256;6.456;2023-03-19T13:40:57;10.30;99.90
51765;DHT22;37835;53.256;6.456;2023-03-19T13:59:33;10.30;99.90
51765;DHT22;37835;53.256;6.456;2023-03-19T14:02:01;10.30;99.90
51765;DHT22;37835;53.256;6.456;2023-03-19T14:04:35;10.20;99.90
51765;DHT22;37835;53.256;6.456;2023-03-19T14:09:42;10.20;99.90
51765;DHT22;37835;53.256;6.456;2023-03-19T14:17:14;10.20;99.90
51765;DHT22;37835;53.256;6.456;2023-03-19T14:19:41;10.10;99.90
51765;DHT22;37835;53.256;6.456;2023-03-19T14:22:15;10.20;99.90
51765;DHT22;37835;53.256;6.456;2023-03-19T14:24:54;10.10;99.90
51765;DHT22;37835;53.256;6.456;2023-03-19T14:27:31;10.10;99.90
51765;DHT22;37835;53.256;6.456;2023-03-19T14:30:01;10.10;99.90
51765;DHT22;37835;53.256;6.456;2023-03-19T14:32:33;10.10;99.90
51765;DHT22;37835;53.256;6.456;2023-03-19T14:35:03;10.10;99.90
51765;DHT22;37835;53.256;6.456;2023-03-19T14:37:39;10.10;99.90
51765;DHT22;37835;53.256;6.456;2023-03-19T14:40:30;10.20;99.90
51765;DHT22;37835;53.256;6.456;2023-03-19T14:43:17;10.10;99.90
51765;DHT22;37835;53.256;6.456;2023-03-19T14:56:33;10.20;99.90
51765;DHT22;37835;53.256;6.456;2023-03-19T14:59:00;10.20;99.90
51765;DHT22;37835;53.256;6.456;2023-03-19T15:01:32;10.20;99.90
51765;DHT22;37835;53.256;6.456;2023-03-19T15:04:10;10.00;99.90
51765;DHT22;37835;53.256;6.456;2023-03-19T15:06:39;10.20;99.90
51765;DHT22;37835;53.256;6.456;2023-03-19T15:09:18;10.20;99.90
51765;DHT22;37835;53.256;6.456;2023-03-19T15:17:39;10.30;99.90
51765;DHT22;37835;53.256;6.456;2023-03-19T15:20:19;10.30;99.90
51765;DHT22;37835;53.256;6.456;2023-03-19T15:22:56;10.30;99.90
51765;DHT22;37835;53.256;6.456;2023-03-19T15:25:24;10.30;99.90
51765;DHT22;37835;53.256;6.456;2023-03-19T15:28:10;10.30;99.90
51765;DHT22;37835;53.256;6.456;2023-03-19T15:30:37;10.30;99.90
51765;DHT22;37835;53.256;6.456;2023-03-19T15:33:15;10.30;99.90
51765;DHT22;37835;53.256;6.456;2023-03-19T15:35:42;10.30;99.90
51765;DHT22;37835;53.256;6.456;2023-03-19T15:38:09;10.30;99.90
51765;DHT22;37835;53.256;6.456;2023-03-19T15:40:36;10.30;99.90
51765;DHT22;37835;53.256;6.456;2023-03-19T15:43:03;10.30;99.90
51765;DHT22;37835;53.256;6.456;2023-03-19T15:45:30;10.30;99.90
51765;DHT22;37835;53.256;6.456;2023-03-19T15:50:39;10.30;99.90
51765;DHT22;37835;53.256;6.456;2023-03-19T15:53:10;10.30;99.90
51765;DHT22;37835;53.256;6.456;2023-03-19T15:55:37;10.30;99.90
51765;DHT22;37835;53.256;6.456;2023-03-19T15:58:15;10.30;99.90
51765;DHT22;37835;53.256;6.456;2023-03-19T16:00:42;10.30;99.90
51765;DHT22;37835;53.256;6.456;2023-03-19T16:03:15;10.30;99.90
51765;DHT22;37835;53.256;6.456;2023-03-19T16:05:41;10.40;99.90
51765;DHT22;37835;53.256;6.456;2023-03-19T16:08:24;10.30;99.90
51765;DHT22;37835;53.256;6.456;2023-03-19T16:10:50;10.30;99.90
51765;DHT22;37835;53.256;6.456;2023-03-19T16:13:36;10.30;99.90
51765;DHT22;37835;53.256;6.456;2023-03-19T16:16:18;10.30;99.90
51765;DHT22;37835;53.256;6.456;2023-03-19T16:26:21;10.30;99.90
51765;DHT22;37835;53.256;6.456;2023-03-19T16:28:59;10.30;99.90
51765;DHT22;37835;53.256;6.456;2023-03-19T16:31:28;10.30;99.90
51765;DHT22;37835;53.256;6.456;2023-03-19T16:33:56;10.30;99.90
51765;DHT22;37835;53.256;6.456;2023-03-19T16:36:23;10.20;99.90
51765;DHT22;37835;53.256;6.456;2023-03-19T16:38:57;10.20;99.90
51765;DHT22;37835;53.256;6.456;2023-03-19T16:41:25;10.40;99.90
51765;DHT22;37835;53.256;6.456;2023-03-19T16:43:52;10.90;99.90
51765;DHT22;37835;53.256;6.456;2023-03-19T16:46:18;10.10;99.90
51765;DHT22;37835;53.256;6.456;2023-03-19T16:48:44;10.10;99.90
51765;DHT22;37835;53.256;6.456;2023-03-19T16:51:15;10.10;99.90
51765;DHT22;37835;53.256;6.456;2023-03-19T16:53:46;10.00;99.90
51765;DHT22;37835;53.256;6.456;2023-03-19T16:56:14;10.00;99.90
51765;DHT22;37835;53.256;6.456;2023-03-19T16:58:44;9.90;99.90
51765;DHT22;37835;53.256;6.456;2023-03-19T17:01:15;9.90;99.90
51765;DHT22;37835;53.256;6.456;2023-03-19T17:03:43;10.40;99.90
51765;DHT22;37835;53.256;6.456;2023-03-19T17:06:12;9.90;99.90
51765;DHT22;37835;53.256;6.456;2023-03-19T17:08:39;9.80;99.90
51765;DHT22;37835;53.256;6.456;2023-03-19T17:11:05;9.80;99.90
51765;DHT22;37835;53.256;6.456;2023-03-19T17:13:32;9.80;99.90
51765;DHT22;37835;53.256;6.456;2023-03-19T17:16:02;9.80;99.90
51765;DHT22;37835;53.256;6.456;2023-03-19T17:18:30;9.70;99.90
51765;DHT22;37835;53.256;6.456;2023-03-19T17:23:34;9.60;99.90
51765;DHT22;37835;53.256;6.456;2023-03-19T17:26:00;9.60;99.90
51765;DHT22;37835;53.256;6.456;2023-03-19T17:28:27;9.60;99.90
51765;DHT22;37835;53.256;6.456;2023-03-19T17:30:53;9.50;99.90
51765;DHT22;37835;53.256;6.456;2023-03-19T17:33:25;9.50;99.90
51765;DHT22;37835;53.256;6.456;2023-03-19T17:35:52;9.50;99.90
51765;DHT22;37835;53.256;6.456;2023-03-19T17:38:19;9.50;99.90
51765;DHT22;37835;53.256;6.456;2023-03-19T17:40:45;9.50;99.90